createdAt,value
2022-11-28T00:01:20.841Z,100.00
2022-11-28T00:03:19.089Z,100.00
2022-11-28T00:05:18.056Z,100.00
2022-11-28T00:07:16.367Z,100.00
2022-11-28T00:09:17.870Z,100.00
2022-11-28T00:11:17.947Z,100.00
2022-11-28T00:13:17.575Z,100.00
2022-11-28T00:15:16.150Z,100.00
2022-11-28T00:17:14.306Z,100.00
2022-11-28T00:19:13.499Z,100.00
2022-11-28T00:21:14.521Z,100.00
2022-11-28T00:23:12.787Z,100.00
2022-11-28T00:25:13.967Z,100.00
2022-11-28T00:27:12.238Z,100.00
2022-11-28T00:29:12.656Z,100.00
2022-11-28T00:31:17.161Z,100.00
2022-11-28T00:33:15.138Z,100.00
2022-11-28T00:35:13.462Z,100.00
2022-11-28T00:37:11.657Z,100.00
2022-11-28T00:39:09.865Z,100.00
2022-11-28T00:41:09.998Z,100.00
2022-11-28T00:43:08.665Z,100.00
2022-11-28T00:45:12.029Z,100.00
2022-11-28T00:47:10.106Z,100.00
2022-11-28T00:49:08.368Z,100.00
2022-11-28T00:51:07.723Z,100.00
2022-11-28T00:53:05.885Z,100.00
2022-11-28T00:55:04.417Z,100.00
2022-11-28T00:57:02.813Z,100.00
2022-11-28T00:59:01.552Z,100.00
2022-11-28T01:01:01.350Z,100.00
2022-11-28T01:02:59.794Z,100.00
2022-11-28T01:04:58.075Z,100.00
2022-11-28T01:06:59.456Z,100.00
2022-11-28T01:08:59.548Z,100.00
2022-11-28T01:10:58.023Z,100.00
2022-11-28T01:12:56.983Z,100.00
2022-11-28T01:14:56.074Z,100.00
2022-11-28T01:16:55.672Z,100.00
2022-11-28T01:18:53.994Z,100.00
2022-11-28T01:20:52.299Z,100.00
2022-11-28T01:22:50.618Z,100.00
2022-11-28T01:24:51.737Z,100.00
2022-11-28T01:26:49.945Z,100.00
2022-11-28T01:28:48.841Z,100.00
2022-11-28T01:30:47.097Z,100.00
2022-11-28T01:32:46.740Z,100.00
2022-11-28T01:34:45.035Z,100.00
2022-11-28T01:36:43.367Z,100.00
2022-11-28T01:38:42.043Z,100.00
2022-11-28T01:40:46.357Z,100.00
2022-11-28T01:42:47.196Z,100.00
2022-11-28T01:45:15.351Z,100.00
2022-11-28T01:47:13.743Z,100.00
2022-11-28T01:49:20.527Z,100.00
2022-11-28T01:51:18.892Z,100.00
2022-11-28T01:53:17.868Z,100.00
2022-11-28T01:55:22.878Z,100.00
2022-11-28T01:57:25.371Z,100.00
2022-11-28T01:59:25.000Z,100.00
2022-11-28T02:01:25.652Z,100.00
2022-11-28T02:03:31.102Z,100.00
2022-11-28T02:05:30.658Z,100.00
2022-11-28T02:07:28.966Z,100.00
2022-11-28T02:09:27.392Z,100.00
2022-11-28T02:11:58.232Z,100.00
2022-11-28T02:14:07.397Z,100.00
2022-11-28T02:16:28.958Z,100.00
2022-11-28T02:18:42.254Z,100.00
2022-11-28T02:20:56.777Z,100.00
2022-11-28T02:23:05.524Z,100.00
2022-11-28T02:25:36.837Z,100.00
2022-11-28T02:28:02.433Z,100.00
2022-11-28T02:30:09.406Z,100.00
2022-11-28T02:32:17.442Z,100.00
2022-11-28T02:34:26.163Z,100.00
2022-11-28T02:36:33.448Z,100.00
2022-11-28T02:38:43.633Z,100.00
2022-11-28T02:40:52.565Z,100.00
2022-11-28T02:43:00.252Z,100.00
2022-11-28T02:45:08.024Z,100.00
2022-11-28T02:47:13.269Z,100.00
2022-11-28T02:49:19.053Z,100.00
2022-11-28T02:51:24.271Z,100.00
2022-11-28T02:53:25.740Z,100.00
2022-11-28T02:55:25.366Z,100.00
2022-11-28T02:57:23.644Z,100.00
2022-11-28T02:59:35.865Z,100.00
2022-11-28T03:01:38.118Z,100.00
2022-11-28T03:04:00.401Z,100.00
2022-11-28T03:06:03.369Z,100.00
2022-11-28T03:08:11.938Z,100.00
2022-11-28T03:10:19.982Z,100.00
2022-11-28T03:12:26.149Z,100.00
2022-11-28T03:14:35.439Z,100.00
2022-11-28T03:16:44.443Z,100.00
2022-11-28T03:18:50.125Z,100.00
2022-11-28T03:20:52.156Z,100.00
2022-11-28T03:23:02.870Z,100.00
2022-11-28T03:25:11.427Z,100.00
2022-11-28T03:27:17.924Z,100.00
2022-11-28T03:29:22.838Z,100.00
2022-11-28T03:31:25.775Z,100.00
2022-11-28T03:33:26.917Z,100.00
2022-11-28T03:35:33.065Z,100.00
2022-11-28T03:37:35.111Z,100.00
2022-11-28T03:39:38.283Z,100.00
2022-11-28T03:41:40.505Z,100.00
2022-11-28T03:43:44.095Z,100.00
2022-11-28T03:45:46.763Z,100.00
2022-11-28T03:47:47.391Z,100.00
2022-11-28T03:49:51.590Z,100.00
2022-11-28T03:51:54.850Z,100.00
2022-11-28T03:53:58.410Z,100.00
2022-11-28T03:56:03.334Z,100.00
2022-11-28T03:58:07.301Z,100.00
2022-11-28T04:00:08.351Z,100.00
2022-11-28T04:02:19.497Z,100.00
2022-11-28T04:04:26.053Z,100.00
2022-11-28T04:06:29.161Z,100.00
2022-11-28T04:08:33.592Z,100.00
2022-11-28T04:10:35.763Z,100.00
2022-11-28T04:12:43.363Z,100.00
2022-11-28T04:14:48.095Z,100.00
2022-11-28T04:16:53.560Z,100.00
2022-11-28T04:18:58.839Z,100.00
2022-11-28T04:21:02.554Z,100.00
2022-11-28T04:23:04.691Z,100.00
2022-11-28T04:25:09.092Z,100.00
2022-11-28T04:27:11.485Z,100.00
2022-11-28T04:29:15.158Z,100.00
2022-11-28T04:31:13.949Z,100.00
2022-11-28T04:33:15.595Z,100.00
2022-11-28T04:35:18.108Z,100.00
2022-11-28T04:37:18.519Z,100.00
2022-11-28T04:39:21.068Z,100.00
2022-11-28T04:41:25.458Z,100.00
2022-11-28T04:43:25.558Z,100.00
2022-11-28T04:45:28.523Z,100.00
2022-11-28T04:47:27.465Z,100.00
2022-11-28T04:49:28.129Z,100.00
2022-11-28T04:51:30.319Z,100.00
2022-11-28T04:53:35.655Z,100.00
2022-11-28T04:55:40.457Z,100.00
2022-11-28T04:57:44.149Z,100.00
2022-11-28T04:59:44.188Z,100.00
2022-11-28T05:01:45.440Z,100.00
2022-11-28T05:03:44.076Z,100.00
2022-11-28T05:05:46.948Z,100.00
2022-11-28T05:07:45.228Z,100.00
2022-11-28T05:09:43.708Z,100.00
2022-11-28T05:11:42.478Z,100.00
2022-11-28T05:13:41.995Z,100.00
2022-11-28T05:15:40.389Z,100.00
2022-11-28T05:17:42.380Z,100.00
2022-11-28T05:19:40.955Z,100.00
2022-11-28T05:21:39.331Z,100.00
2022-11-28T05:23:37.868Z,100.00
2022-11-28T05:25:38.576Z,100.00
2022-11-28T05:27:37.182Z,100.00
2022-11-28T05:29:36.885Z,100.00
2022-11-28T05:31:35.239Z,100.00
2022-11-28T05:33:34.688Z,100.00
2022-11-28T05:35:33.266Z,100.00
2022-11-28T05:37:31.519Z,100.00
2022-11-28T05:39:29.980Z,100.00
2022-11-28T05:41:29.996Z,100.00
2022-11-28T05:43:31.452Z,100.00
2022-11-28T05:45:31.043Z,100.00
2022-11-28T05:47:31.943Z,100.00
2022-11-28T05:49:30.342Z,100.00
2022-11-28T05:51:28.781Z,100.00
2022-11-28T05:53:27.083Z,100.00
2022-11-28T05:55:25.373Z,100.00
2022-11-28T05:57:23.663Z,100.00
2022-11-28T05:59:21.814Z,100.00
2022-11-28T06:01:23.326Z,100.00
2022-11-28T06:03:21.400Z,100.00
2022-11-28T06:05:40.956Z,100.00
2022-11-28T06:07:37.998Z,100.00
2022-11-28T06:09:36.362Z,100.00
2022-11-28T06:11:36.073Z,100.00
2022-11-28T06:13:34.353Z,100.00
2022-11-28T06:15:37.568Z,100.00
2022-11-28T06:17:38.234Z,100.00
2022-11-28T06:19:36.651Z,100.00
2022-11-28T06:21:35.121Z,100.00
2022-11-28T06:23:33.459Z,100.00
2022-11-28T06:25:31.736Z,100.00
2022-11-28T06:27:30.219Z,100.00
2022-11-28T06:29:28.554Z,100.00
2022-11-28T06:31:30.045Z,100.00
2022-11-28T06:33:30.113Z,100.00
2022-11-28T06:35:28.667Z,100.00
2022-11-28T06:37:26.874Z,100.00
2022-11-28T06:39:25.247Z,100.00
2022-11-28T06:41:24.482Z,100.00
2022-11-28T06:43:22.731Z,100.00
2022-11-28T06:45:21.012Z,100.00
2022-11-28T06:47:19.329Z,100.00
2022-11-28T06:49:19.001Z,100.00
2022-11-28T06:51:18.289Z,100.00
2022-11-28T06:53:16.684Z,100.00
2022-11-28T06:55:14.926Z,100.00
2022-11-28T06:57:13.508Z,100.00
2022-11-28T06:59:13.431Z,100.00
2022-11-28T07:01:13.521Z,100.00
2022-11-28T07:03:12.660Z,100.00
2022-11-28T07:05:12.467Z,100.00
2022-11-28T07:07:15.012Z,100.00
2022-11-28T07:09:14.767Z,100.00
2022-11-28T07:11:15.785Z,100.00
2022-11-28T07:13:14.515Z,100.00
2022-11-28T07:15:13.541Z,100.00
2022-11-28T07:17:11.815Z,100.00
2022-11-28T07:19:12.340Z,100.00
2022-11-28T07:21:14.232Z,100.00
2022-11-28T07:23:31.993Z,100.00
2022-11-28T07:25:30.406Z,100.00
2022-11-28T07:27:28.695Z,100.00
2022-11-28T07:29:31.500Z,100.00
2022-11-28T07:31:32.442Z,100.00
2022-11-28T07:33:31.588Z,100.00
2022-11-28T07:35:29.826Z,100.00
2022-11-28T07:37:29.480Z,100.00
2022-11-28T07:39:27.812Z,100.00
2022-11-28T07:41:27.135Z,100.00
2022-11-28T07:43:26.096Z,100.00
2022-11-28T07:45:59.231Z,100.00
2022-11-28T07:47:56.469Z,100.00
2022-11-28T07:49:54.667Z,100.00
2022-11-28T07:51:52.821Z,100.00
2022-11-28T07:53:52.937Z,100.00
2022-11-28T07:55:51.317Z,100.00
2022-11-28T07:57:49.676Z,100.00
2022-11-28T07:59:47.970Z,100.00
2022-11-28T08:01:46.151Z,99.82
2022-11-28T08:03:45.925Z,98.17
2022-11-28T08:05:49.487Z,97.32
2022-11-28T08:07:50.527Z,95.63
2022-11-28T08:09:50.226Z,96.18
2022-11-28T08:11:49.260Z,95.31
2022-11-28T08:13:47.954Z,96.61
2022-11-28T08:15:46.454Z,96.69
2022-11-28T08:17:44.685Z,96.80
2022-11-28T08:19:42.867Z,98.37
2022-11-28T08:21:41.138Z,97.69
2022-11-28T08:23:40.801Z,97.02
2022-11-28T08:25:40.653Z,96.06
2022-11-28T08:27:38.840Z,96.87
2022-11-28T08:29:37.155Z,96.96
2022-11-28T08:31:37.477Z,96.43
2022-11-28T08:33:35.894Z,96.93
2022-11-28T08:35:34.185Z,97.91
2022-11-28T08:37:36.998Z,97.98
2022-11-28T08:39:35.335Z,98.53
2022-11-28T08:41:34.943Z,98.37
2022-11-28T08:43:35.594Z,96.59
2022-11-28T08:45:33.827Z,92.99
2022-11-28T08:47:32.045Z,93.21
2022-11-28T08:49:30.773Z,94.69
2022-11-28T08:51:29.669Z,94.06
2022-11-28T08:53:28.134Z,94.67
2022-11-28T08:55:32.144Z,94.49
2022-11-28T08:57:33.006Z,94.10
2022-11-28T08:59:31.491Z,94.34
2022-11-28T09:01:32.360Z,93.37
2022-11-28T09:03:31.263Z,92.68
2022-11-28T09:05:29.843Z,93.11
2022-11-28T09:07:28.281Z,91.48
2022-11-28T09:09:31.454Z,92.29
2022-11-28T09:11:30.955Z,91.56
2022-11-28T09:13:30.671Z,91.05
2022-11-28T09:15:29.089Z,91.07
2022-11-28T09:17:27.295Z,90.34
2022-11-28T09:19:25.682Z,91.44
2022-11-28T09:21:23.986Z,92.23
2022-11-28T09:23:22.495Z,92.28
2022-11-28T09:25:20.817Z,91.59
2022-11-28T09:27:19.505Z,92.00
2022-11-28T09:29:22.478Z,92.17
2022-11-28T09:31:23.467Z,90.69
2022-11-28T09:33:22.311Z,90.37
2022-11-28T09:35:21.023Z,91.03
2022-11-28T09:37:19.566Z,91.28
2022-11-28T09:39:18.079Z,89.33
2022-11-28T09:41:55.310Z,88.48
2022-11-28T09:43:56.660Z,84.83
2022-11-28T09:45:57.514Z,80.52
2022-11-28T09:47:59.571Z,75.59
2022-11-28T09:50:03.303Z,72.21
2022-11-28T09:52:07.571Z,70.55
2022-11-28T09:54:16.413Z,66.49
2022-11-28T09:56:18.503Z,63.54
2022-11-28T09:58:23.676Z,63.18
2022-11-28T10:00:24.533Z,62.75
2022-11-28T10:02:32.059Z,60.63
2022-11-28T10:04:44.032Z,64.40
2022-11-28T10:06:52.101Z,70.91
2022-11-28T10:09:17.429Z,74.66
2022-11-28T10:11:28.229Z,77.36
2022-11-28T10:14:06.121Z,78.80
2022-11-28T10:16:08.210Z,81.66
2022-11-28T10:18:22.086Z,84.74
2022-11-28T10:20:24.057Z,84.92
2022-11-28T10:22:39.727Z,84.93
2022-11-28T10:24:43.752Z,84.43
2022-11-28T10:26:46.487Z,83.58
2022-11-28T10:28:49.817Z,82.57
2022-11-28T10:30:54.883Z,81.61
2022-11-28T10:33:00.423Z,82.02
2022-11-28T10:35:05.626Z,81.65
2022-11-28T10:37:07.600Z,80.50
2022-11-28T10:39:12.693Z,79.21
2022-11-28T10:41:17.546Z,76.17
2022-11-28T10:43:30.339Z,70.70
2022-11-28T10:45:38.288Z,66.25
2022-11-28T10:48:04.109Z,67.85
2022-11-28T10:50:21.617Z,73.44
2022-11-28T10:52:27.536Z,75.69
2022-11-28T10:54:52.665Z,77.86
2022-11-28T10:57:01.897Z,78.86
2022-11-28T10:59:08.549Z,78.87
2022-11-28T11:01:06.979Z,79.07
2022-11-28T11:03:07.157Z,78.78
2022-11-28T11:05:06.991Z,78.02
2022-11-28T11:07:20.231Z,78.16
2022-11-28T11:09:21.160Z,77.19
2022-11-28T11:11:27.817Z,78.89
2022-11-28T11:13:28.631Z,77.01
2022-11-28T11:15:32.818Z,77.06
2022-11-28T11:17:37.981Z,77.73
2022-11-28T11:19:41.672Z,76.62
2022-11-28T11:21:42.934Z,76.79
2022-11-28T11:23:56.974Z,77.41
2022-11-28T11:25:59.737Z,76.59
2022-11-28T11:28:01.115Z,76.15
2022-11-28T11:30:00.405Z,75.48
2022-11-28T11:32:03.546Z,75.26
2022-11-28T11:34:07.062Z,76.55
2022-11-28T11:36:20.115Z,76.44
2022-11-28T11:38:27.815Z,76.12
2022-11-28T11:40:30.968Z,76.36
2022-11-28T11:42:31.474Z,76.98
2022-11-28T11:44:35.572Z,76.42
2022-11-28T11:46:34.184Z,76.11
2022-11-28T11:48:37.389Z,75.84
2022-11-28T11:50:36.955Z,76.14
2022-11-28T11:52:35.182Z,76.19
2022-11-28T11:54:34.304Z,77.25
2022-11-28T11:56:38.473Z,77.75
2022-11-28T11:58:42.865Z,77.77
2022-11-28T12:00:42.930Z,77.59
2022-11-28T12:02:45.545Z,77.65
2022-11-28T12:05:00.085Z,77.42
2022-11-28T12:07:01.901Z,78.35
2022-11-28T12:09:08.685Z,78.60
2022-11-28T12:11:15.586Z,79.16
2022-11-28T12:13:20.553Z,78.65
2022-11-28T12:15:27.918Z,78.14
2022-11-28T12:20:24.017Z,78.28
2022-11-28T12:22:31.086Z,79.42
2022-11-28T12:24:38.678Z,79.35
2022-11-28T12:26:46.188Z,78.61
2022-11-28T12:29:00.809Z,80.56
2022-11-28T12:31:12.195Z,78.57
2022-11-28T12:33:33.755Z,78.42
2022-11-28T12:35:39.574Z,79.45
2022-11-28T12:40:18.678Z,80.27
2022-11-28T12:42:41.250Z,80.03
2022-11-28T12:44:55.363Z,79.40
2022-11-28T12:47:04.228Z,79.29
2022-11-28T12:49:22.276Z,79.77
2022-11-28T12:51:30.045Z,79.93
2022-11-28T12:53:57.833Z,79.26
2022-11-28T12:56:07.875Z,79.03
2022-11-28T12:58:13.656Z,79.37
2022-11-28T13:00:18.400Z,80.49
2022-11-28T13:02:28.855Z,80.22
2022-11-28T13:04:43.163Z,80.70
2022-11-28T13:06:51.504Z,80.67
2022-11-28T13:09:04.307Z,80.76
2022-11-28T13:11:13.784Z,81.74
2022-11-28T13:13:19.544Z,82.51
2022-11-28T13:15:35.995Z,81.66
2022-11-28T13:17:45.431Z,80.98
2022-11-28T13:19:51.952Z,82.43
2022-11-28T13:21:56.879Z,82.36
2022-11-28T13:24:06.959Z,83.24
2022-11-28T13:26:12.076Z,82.94
2022-11-28T13:28:17.666Z,82.88
2022-11-28T13:30:23.604Z,81.65
2022-11-28T13:32:29.621Z,81.85
2022-11-28T13:34:29.777Z,81.32
2022-11-28T13:39:12.484Z,81.80
2022-11-28T13:41:43.187Z,83.14
2022-11-28T13:43:46.811Z,83.65
2022-11-28T13:45:48.258Z,83.38
2022-11-28T13:47:46.941Z,83.89
2022-11-28T13:49:45.266Z,84.37
2022-11-28T13:51:45.725Z,84.53
2022-11-28T13:53:49.681Z,84.72
2022-11-28T13:55:48.818Z,84.48
2022-11-28T13:57:47.835Z,85.15
2022-11-28T13:59:51.124Z,84.72
2022-11-28T14:01:58.201Z,85.17
2022-11-28T14:04:10.138Z,84.98
2022-11-28T14:06:10.880Z,85.56
2022-11-28T14:08:09.932Z,86.04
2022-11-28T14:10:27.315Z,85.70
2022-11-28T14:12:34.753Z,85.36
2022-11-28T14:15:00.218Z,85.44
2022-11-28T14:17:07.130Z,85.71
2022-11-28T14:19:23.773Z,85.75
2022-11-28T14:21:36.160Z,86.34
2022-11-28T14:23:44.260Z,86.56
2022-11-28T14:25:48.849Z,86.74
2022-11-28T14:27:53.844Z,87.21
2022-11-28T14:29:55.299Z,86.77
2022-11-28T14:32:22.172Z,86.77
2022-11-28T14:34:38.739Z,86.99
2022-11-28T14:36:42.279Z,86.60
2022-11-28T14:39:02.156Z,86.57
2022-11-28T14:41:03.283Z,86.71
2022-11-28T14:43:22.817Z,86.90
2022-11-28T14:45:44.552Z,85.96
2022-11-28T14:48:21.209Z,86.40
2022-11-28T14:50:48.724Z,86.63
2022-11-28T14:52:51.018Z,87.29
2022-11-28T14:54:52.479Z,87.17
2022-11-28T14:57:00.079Z,87.48
2022-11-28T14:59:02.616Z,87.18
2022-11-28T15:01:03.918Z,88.25
2022-11-28T15:03:28.122Z,88.20
2022-11-28T15:05:49.226Z,87.39
2022-11-28T15:08:02.156Z,88.15
2022-11-28T15:10:09.502Z,88.60
2022-11-28T15:12:15.536Z,87.63
2022-11-28T15:14:22.318Z,88.63
2022-11-28T15:16:24.101Z,86.57
2022-11-28T15:18:24.892Z,87.76
2022-11-28T15:20:29.967Z,88.81
2022-11-28T15:22:39.274Z,88.51
2022-11-28T15:24:39.097Z,88.69
2022-11-28T15:26:37.520Z,89.37
2022-11-28T15:28:36.524Z,89.06
2022-11-28T15:30:35.897Z,89.19
2022-11-28T15:32:34.445Z,89.26
2022-11-28T15:34:35.628Z,89.44
2022-11-28T15:36:34.684Z,89.28
2022-11-28T15:38:34.652Z,89.69
2022-11-28T15:40:34.858Z,90.19
2022-11-28T15:42:35.742Z,89.97
2022-11-28T15:44:36.664Z,90.05
2022-11-28T15:46:35.993Z,90.57
2022-11-28T15:48:39.668Z,90.58
2022-11-28T15:50:39.084Z,90.13
2022-11-28T15:52:37.348Z,90.01
2022-11-28T15:54:41.416Z,90.60
2022-11-28T15:56:39.843Z,90.70
2022-11-28T15:58:38.487Z,90.80
2022-11-28T16:00:41.302Z,91.02
2022-11-28T16:02:39.848Z,90.72
2022-11-28T16:04:42.135Z,90.68
2022-11-28T16:06:43.275Z,89.77
2022-11-28T16:08:50.396Z,89.66
2022-11-28T16:10:50.389Z,89.70
2022-11-28T16:12:48.977Z,89.90
2022-11-28T16:14:48.454Z,89.40
2022-11-28T16:16:46.938Z,89.33
2022-11-28T16:18:47.781Z,89.51
2022-11-28T16:20:47.181Z,89.40
2022-11-28T16:22:45.555Z,89.36
2022-11-28T16:24:47.466Z,89.73
2022-11-28T16:26:59.852Z,90.19
2022-11-28T16:29:01.960Z,89.75
2022-11-28T16:31:00.887Z,90.32
2022-11-28T16:32:59.360Z,90.03
2022-11-28T16:35:03.755Z,90.05
2022-11-28T16:37:07.813Z,89.87
2022-11-28T16:39:09.321Z,90.23
2022-11-28T16:41:16.595Z,89.64
2022-11-28T16:43:29.177Z,89.72
2022-11-28T16:45:29.847Z,90.41
2022-11-28T16:47:33.361Z,90.34
2022-11-28T16:49:35.796Z,89.90
2022-11-28T16:51:41.941Z,90.38
2022-11-28T16:53:45.347Z,89.91
2022-11-28T16:55:47.561Z,89.56
2022-11-28T16:57:47.659Z,89.65
2022-11-28T16:59:49.246Z,90.20
2022-11-28T17:01:49.850Z,90.49
2022-11-28T17:03:55.468Z,90.39
2022-11-28T17:05:53.504Z,90.92
2022-11-28T17:07:51.952Z,90.68
2022-11-28T17:09:51.494Z,90.48
2022-11-28T17:11:56.709Z,90.68
2022-11-28T17:13:57.629Z,91.09
2022-11-28T17:15:58.763Z,90.48
2022-11-28T17:17:58.005Z,90.26
2022-11-28T17:19:56.304Z,90.28
2022-11-28T17:21:57.904Z,89.83
2022-11-28T17:23:56.825Z,90.80
2022-11-28T17:25:55.124Z,90.61
2022-11-28T17:27:53.878Z,90.92
2022-11-28T17:29:52.113Z,90.15
2022-11-28T17:31:51.785Z,89.76
2022-11-28T17:33:50.030Z,89.51
2022-11-28T17:35:51.061Z,90.18
2022-11-28T17:37:49.675Z,89.45
2022-11-28T17:40:01.850Z,88.81
2022-11-28T17:42:00.997Z,89.38
2022-11-28T17:43:59.320Z,88.54
2022-11-28T17:45:57.950Z,88.70
2022-11-28T17:47:59.987Z,88.71
2022-11-28T17:50:01.404Z,89.43
2022-11-28T17:52:00.173Z,89.57
2022-11-28T17:53:58.705Z,89.54
2022-11-28T17:55:59.216Z,89.32
2022-11-28T17:57:57.441Z,89.54
2022-11-28T17:59:56.773Z,90.17
2022-11-28T18:01:55.509Z,89.98
2022-11-28T18:04:03.075Z,90.58
2022-11-28T18:06:02.699Z,90.26
2022-11-28T18:08:01.098Z,90.46
2022-11-28T18:09:59.408Z,90.73
2022-11-28T18:11:57.851Z,90.59
2022-11-28T18:13:57.524Z,90.46
2022-11-28T18:15:56.429Z,90.87
2022-11-28T18:17:54.891Z,90.62
2022-11-28T18:19:57.726Z,90.42
2022-11-28T18:21:56.553Z,91.33
2022-11-28T18:23:55.286Z,90.83
2022-11-28T18:25:54.351Z,91.09
2022-11-28T18:27:53.273Z,91.15
2022-11-28T18:29:52.142Z,90.81
2022-11-28T18:31:56.880Z,91.51
2022-11-28T18:34:02.208Z,92.40
2022-11-28T18:36:11.991Z,92.33
2022-11-28T18:38:11.837Z,93.10
2022-11-28T18:40:14.099Z,93.28
2022-11-28T18:42:12.479Z,92.16
2022-11-28T18:44:12.730Z,92.63
2022-11-28T18:46:15.435Z,92.63
2022-11-28T18:48:17.134Z,91.94
2022-11-28T18:50:18.635Z,91.44
2022-11-28T18:52:21.108Z,90.94
2022-11-28T18:54:21.608Z,90.95
2022-11-28T18:56:23.432Z,90.86
2022-11-28T18:58:29.419Z,91.10
2022-11-28T19:00:49.253Z,90.36
2022-11-28T19:03:08.106Z,90.21
2022-11-28T19:05:35.051Z,89.94
2022-11-28T19:07:44.135Z,89.42
2022-11-28T19:09:45.385Z,90.15
2022-11-28T19:11:46.765Z,90.01
2022-11-28T19:13:51.718Z,90.00
2022-11-28T19:15:49.912Z,90.76
2022-11-28T19:17:48.264Z,90.76
2022-11-28T19:19:46.783Z,90.99
2022-11-28T19:21:45.933Z,91.30
2022-11-28T19:23:49.620Z,90.98
2022-11-28T19:25:49.246Z,91.19
2022-11-28T19:27:49.809Z,91.15
2022-11-28T19:29:50.780Z,90.72
2022-11-28T19:31:51.635Z,90.06
2022-11-28T19:34:00.549Z,89.86
2022-11-28T19:36:03.065Z,89.22
2022-11-28T19:38:01.630Z,89.16
2022-11-28T19:40:02.999Z,89.05
2022-11-28T19:42:02.058Z,89.51
2022-11-28T19:44:00.773Z,89.25
2022-11-28T19:46:00.637Z,88.82
2022-11-28T19:47:59.220Z,88.80
2022-11-28T19:49:57.906Z,89.45
2022-11-28T19:51:56.370Z,88.40
2022-11-28T19:53:58.460Z,88.34
2022-11-28T19:56:05.987Z,89.08
2022-11-28T19:58:05.110Z,88.56
2022-11-28T20:00:03.740Z,89.14
2022-11-28T20:02:12.192Z,89.74
2022-11-28T20:04:11.073Z,89.14
2022-11-28T20:06:10.743Z,88.93
2022-11-28T20:08:09.397Z,89.15
2022-11-28T20:10:12.278Z,88.95
2022-11-28T20:12:12.053Z,89.11
2022-11-28T20:14:14.713Z,88.33
2022-11-28T20:16:15.756Z,88.76
2022-11-28T20:18:14.786Z,88.44
2022-11-28T20:20:15.596Z,87.76
2022-11-28T20:22:14.102Z,87.87
2022-11-28T20:24:12.780Z,88.44
2022-11-28T20:26:12.715Z,88.72
2022-11-28T20:28:13.847Z,89.23
2022-11-28T20:30:16.280Z,88.86
2022-11-28T20:32:15.123Z,88.73
2022-11-28T20:34:17.310Z,88.71
2022-11-28T20:36:25.436Z,88.23
2022-11-28T20:38:26.190Z,88.90
2022-11-28T20:40:24.672Z,89.65
2022-11-28T20:42:22.984Z,89.32
2022-11-28T20:44:24.337Z,88.81
2022-11-28T20:46:31.271Z,88.24
2022-11-28T20:48:32.351Z,89.16
2022-11-28T20:50:30.638Z,89.31
2022-11-28T20:52:31.436Z,88.80
2022-11-28T20:54:29.741Z,89.35
2022-11-28T20:56:30.489Z,89.16
2022-11-28T20:58:30.417Z,89.30
2022-11-28T21:00:30.082Z,88.02
2022-11-28T21:02:28.515Z,87.12
2022-11-28T21:04:27.981Z,87.19
2022-11-28T21:06:26.955Z,86.98
2022-11-28T21:08:26.446Z,87.10
2022-11-28T21:10:26.413Z,86.91
2022-11-28T21:12:25.000Z,86.46
2022-11-28T21:14:27.713Z,86.72
2022-11-28T21:16:31.473Z,87.17
2022-11-28T21:18:32.875Z,87.86
2022-11-28T21:20:49.052Z,87.78
2022-11-28T21:22:50.995Z,87.88
2022-11-28T21:24:51.368Z,88.14
2022-11-28T21:26:54.535Z,88.54
2022-11-28T21:28:55.499Z,88.94
2022-11-28T21:30:53.919Z,88.94
2022-11-28T21:32:55.791Z,90.12
2022-11-28T21:34:55.636Z,89.83
2022-11-28T21:36:57.711Z,89.67
2022-11-28T21:39:01.942Z,90.25
2022-11-28T21:41:01.047Z,89.67
2022-11-28T21:43:03.175Z,90.37
2022-11-28T21:45:04.487Z,90.52
2022-11-28T21:47:04.915Z,90.65
2022-11-28T21:49:05.683Z,90.87
2022-11-28T21:51:20.318Z,91.74
2022-11-28T21:53:21.523Z,91.32
2022-11-28T21:55:22.445Z,91.46
2022-11-28T21:57:23.116Z,92.24
2022-11-28T21:59:24.605Z,92.37
2022-11-28T22:01:23.114Z,91.72
2022-11-28T22:03:22.274Z,91.37
2022-11-28T22:05:22.127Z,91.43
2022-11-28T22:07:22.353Z,91.46
2022-11-28T22:09:27.382Z,91.92
2022-11-28T22:11:26.423Z,92.00
2022-11-28T22:13:24.991Z,91.83
2022-11-28T22:15:24.448Z,92.39
2022-11-28T22:17:22.856Z,92.29
2022-11-28T22:19:21.180Z,92.06
2022-11-28T22:21:50.652Z,92.29
2022-11-28T22:23:41.478Z,92.74
2022-11-28T22:25:42.004Z,92.91
2022-11-28T22:27:43.256Z,93.32
2022-11-28T22:29:41.841Z,93.63
2022-11-28T22:31:40.419Z,93.75
2022-11-28T22:33:39.928Z,93.34
2022-11-28T22:35:38.270Z,93.47
2022-11-28T22:37:38.596Z,92.85
2022-11-28T22:39:39.008Z,93.32
2022-11-28T22:41:37.600Z,93.24
2022-11-28T22:43:38.557Z,93.29
2022-11-28T22:45:39.955Z,93.21
2022-11-28T22:47:38.861Z,93.20
2022-11-28T22:49:37.320Z,93.27
2022-11-28T22:51:35.546Z,93.67
2022-11-28T22:53:36.826Z,93.59
2022-11-28T22:55:36.321Z,94.16
2022-11-28T22:57:34.635Z,94.37
2022-11-28T22:59:35.207Z,94.73
2022-11-28T23:01:34.539Z,94.28
2022-11-28T23:03:33.154Z,94.13
2022-11-28T23:05:34.837Z,93.85
2022-11-28T23:07:33.442Z,93.72
2022-11-28T23:09:33.439Z,94.64
2022-11-28T23:11:34.146Z,94.52
2022-11-28T23:13:32.823Z,94.59
2022-11-28T23:15:31.363Z,95.21
2022-11-28T23:17:30.025Z,94.80
2022-11-28T23:19:28.470Z,94.07
2022-11-28T23:21:32.949Z,94.06
2022-11-28T23:23:37.863Z,93.48
2022-11-28T23:25:38.290Z,93.54
2022-11-28T23:27:37.029Z,94.27
2022-11-28T23:29:35.476Z,93.91
2022-11-28T23:31:35.338Z,94.55
2022-11-28T23:33:33.940Z,95.51
2022-11-28T23:35:32.072Z,95.67
2022-11-28T23:37:30.578Z,95.43
2022-11-28T23:39:28.654Z,95.57
2022-11-28T23:41:36.189Z,96.08
2022-11-28T23:43:34.565Z,96.12
2022-11-28T23:45:32.719Z,96.17
2022-11-28T23:47:30.888Z,96.12
2022-11-28T23:49:29.063Z,95.43
2022-11-28T23:51:27.830Z,95.17
2022-11-28T23:53:26.194Z,94.98
2022-11-28T23:55:24.447Z,94.41
2022-11-28T23:57:24.088Z,94.83
2022-11-28T23:59:22.286Z,95.17
